< Typhoon 195819 1958 Season Typhoon 195821 >
Typhoon 195820 (NO-NAME)
General InformationTrack Information on Google Maps || Disaster Info.ResourceGoogle EarthGE AnimationAtom FeedGeoJSON
Detalied Best Track (Time Zone = UTC)
Year Month Day Hour Lat. Long. Pressure (hPa) Wind (kt) Class Image Chart
1958 9 2 12 9.2 146.0 1008 0 2 -- Chart
1958 9 2 18 9.2 145.0 1004 0 2 -- Chart
1958 9 3 00 9.2 143.6 1006 0 2 -- Chart
1958 9 3 06 9.2 142.2 1004 0 2 -- Chart
1958 9 3 12 9.2 141.3 1004 0 2 -- Chart
1958 9 3 18 9.2 140.4 1004 0 2 -- Chart
1958 9 4 00 9.2 139.4 1006 0 2 -- Chart
1958 9 4 06 9.2 138.8 1004 0 2 -- Chart
1958 9 4 12 9.6 137.8 1006 0 2 -- Chart
1958 9 4 18 10.0 137.1 1004 0 2 -- Chart
1958 9 5 00 11.0 136.2 1006 0 2 -- Chart
1958 9 5 06 11.8 135.1 1004 0 2 -- Chart
1958 9 5 12 12.3 133.6 1004 0 2 -- Chart
1958 9 5 18 12.9 132.0 1004 0 2 -- Chart
1958 9 6 00 13.2 129.7 1006 0 2 -- Chart
1958 9 6 06 13.7 127.5 1002 0 2 -- Chart
1958 9 6 12 13.8 126.5 1004 0 2 -- Chart
1958 9 6 18 14.2 126.0 1002 0 2 -- Chart
1958 9 7 00 14.9 125.1 1002 0 2 -- Chart
1958 9 7 06 15.4 124.7 1000 0 2 -- Chart
1958 9 7 12 15.9 123.9 1000 0 2 -- Chart
1958 9 7 18 16.8 123.0 1000 0 2 -- Chart
1958 9 8 00 17.4 121.3 1000 0 2 -- Chart
1958 9 8 06 18.0 119.6 996 0 2 -- Chart
1958 9 8 12 18.0 117.6 996 0 2 -- Chart
1958 9 8 18 18.0 116.0 996 0 2 -- Chart
1958 9 9 00 17.8 115.0 990 0 9 -- Chart
1958 9 9 06 17.6 113.8 990 0 9 -- Chart
1958 9 9 12 17.4 113.0 990 0 9 -- Chart
1958 9 9 18 17.2 112.4 990 0 9 -- Chart
1958 9 10 00 17.2 111.5 988 0 9 -- Chart
1958 9 10 06 17.1 110.9 986 0 9 -- Chart
1958 9 10 12 17.1 110.6 988 0 9 -- Chart
1958 9 10 18 17.3 110.4 996 0 9 -- Chart
1958 9 11 00 17.6 110.4 998 0 9 -- Chart
1958 9 11 06 17.9 110.4 990 0 9 -- Chart
1958 9 11 12 18.6 110.2 990 0 9 -- Chart
1958 9 11 18 19.1 110.0 990 0 9 -- Chart
1958 9 12 00 19.7 109.6 990 0 9 -- Chart
1958 9 12 06 20.4 109.3 992 0 9 -- Chart
1958 9 12 12 21.6 108.7 992 0 9 -- Chart
1958 9 12 18 22.8 108.1 995 0 9 -- Chart
1958 9 13 00 23.2 107.8 1002 0 2 -- Chart
1958 9 13 06 23.8 106.7 1000 0 2 -- Chart
1958 9 13 12 24.2 105.8 1000 0 2 -- Chart
Japan Meteorological Agency Best Track Data | Correction Date : 1989-06-01
< Typhoon 195819 1958 Season Typhoon 195821 >

Help